Time;durP1;ratioP1;P1;durP2;ratioP2;P2;SDS_P1;SDS_P2;PMS_P1;PMS_P2;Temp;Humidity;BMP_temperature;BMP_pressure;BME280_temperature;BME280_humidity;BME280_pressure;Samples;Min_cycle;Max_cycle;Signal;HPM_P1;HPM_P2
2022/12/23 00:00:14;;;;;;;25.98;11.57;;;;;;;5.18;56.98;100212.84;4894350;29;20115;-69
2022/12/23 00:02:39;;;;;;;32.72;13.38;;;;;;;5.18;56.80;100218.03;4921237;28;20271;-69
2022/12/23 00:05:06;;;;;;;35.95;14.95;;;;;;;5.15;56.93;100212.13;4914530;29;20511;-70
2022/12/23 00:07:31;;;;;;;32.50;14.38;;;;;;;5.11;56.99;100213.09;4908346;28;20472;-70
2022/12/23 00:09:57;;;;;;;31.65;14.45;;;;;;;5.11;56.91;100221.69;4901556;29;20095;-77
2022/12/23 00:15:08;;;;;;;31.52;13.20;;;;;;;5.06;57.27;100213.22;4935184;29;20028;-77
2022/12/23 00:17:44;;;;;;;31.17;13.93;;;;;;;5.01;56.98;100207.28;4906428;29;20567;-68
2022/12/23 00:20:12;;;;;;;27.95;12.85;;;;;;;4.96;57.15;100207.41;4916499;29;20576;-68
2022/12/23 00:25:40;;;;;;;35.53;14.60;;;;;;;4.88;57.31;100200.75;4895921;29;20043;-68
2022/12/23 00:28:17;;;;;;;27.63;13.55;;;;;;;4.91;57.23;100206.69;4911277;29;20510;-68
2022/12/23 00:30:50;;;;;;;33.53;14.00;;;;;;;4.90;57.12;100206.72;4912809;29;20036;-67
2022/12/23 00:33:18;;;;;;;33.35;14.75;;;;;;;4.86;57.48;100205.09;4914330;28;20083;-68
2022/12/23 00:35:44;;;;;;;33.00;15.13;;;;;;;4.86;57.65;100212.88;4915061;29;20066;-68
2022/12/23 00:38:10;;;;;;;32.65;14.07;;;;;;;4.88;57.40;100213.69;4916072;28;20319;-68
2022/12/23 00:43:20;;;;;;;33.28;14.07;;;;;;;4.94;57.31;100205.75;4917607;28;20048;-68
2022/12/23 00:45:46;;;;;;;30.38;13.50;;;;;;;4.93;57.19;100204.06;4916293;29;20059;-67
2022/12/23 00:50:55;;;;;;;34.95;14.30;;;;;;;4.79;57.03;100204.41;4917664;29;20841;-69
2022/12/23 00:53:22;;;;;;;32.50;14.45;;;;;;;4.76;57.56;100201.91;4914786;28;20308;-68
2022/12/23 00:55:48;;;;;;;30.17;15.05;;;;;;;4.75;57.24;100214.00;4913586;29;20539;-69
2022/12/23 00:58:14;;;;;;;29.08;12.55;;;;;;;4.75;57.10;100203.63;4899968;29;20162;-68
2022/12/23 01:06:08;;;;;;;34.35;14.10;;;;;;;4.78;57.26;100206.13;4917445;29;20814;-72
2022/12/23 01:08:34;;;;;;;27.05;12.27;;;;;;;4.82;57.42;100212.09;4919834;28;20115;-72
2022/12/23 01:11:04;;;;;;;27.48;12.07;;;;;;;4.82;57.24;100209.50;4935744;29;20438;-73
2022/12/23 01:13:30;;;;;;;30.45;13.63;;;;;;;4.81;57.29;100213.84;4934339;28;20048;-73
2022/12/23 01:16:08;;;;;;;34.20;13.65;;;;;;;4.85;57.48;100219.78;4904038;29;20093;-72
2022/12/23 01:18:34;;;;;;;34.90;13.43;;;;;;;4.88;57.28;100227.50;4920598;28;20054;-72
2022/12/23 01:21:08;;;;;;;37.38;15.02;;;;;;;4.92;57.21;100226.53;4935153;29;20035;-72
2022/12/23 01:23:34;;;;;;;36.53;16.08;;;;;;;4.86;57.34;100225.81;4914336;29;20347;-72
2022/12/23 01:26:02;;;;;;;46.58;18.60;;;;;;;4.94;57.51;100232.50;4919002;29;20081;-72
2022/12/23 01:28:28;;;;;;;43.30;15.80;;;;;;;4.99;57.19;100238.44;4920007;28;20083;-72
2022/12/23 01:30:54;;;;;;;29.30;13.82;;;;;;;4.90;57.44;100230.03;4909339;29;20028;-73
2022/12/23 01:33:20;;;;;;;44.50;16.58;;;;;;;4.95;57.39;100235.97;4917982;29;20047;-71
2022/12/23 01:35:46;;;;;;;31.55;15.43;;;;;;;4.89;57.09;100236.13;4913089;29;20039;-72
2022/12/23 01:38:12;;;;;;;33.53;15.10;;;;;;;4.87;57.34;100238.72;4917298;28;20051;-72
2022/12/23 01:40:40;;;;;;;29.10;13.32;;;;;;;4.86;57.57;100233.59;4923172;29;20388;-72
2022/12/23 01:43:06;;;;;;;34.08;15.48;;;;;;;4.91;57.59;100234.34;4920479;28;20043;-72
2022/12/23 01:45:32;;;;;;;34.85;14.48;;;;;;;4.95;57.16;100230.78;4920210;29;20039;-72
2022/12/23 01:48:05;;;;;;;32.70;13.82;;;;;;;4.93;57.40;100217.03;4919495;29;20296;-72
2022/12/23 01:50:38;;;;;;;32.80;14.77;;;;;;;4.90;57.44;100228.31;4919530;29;20529;-72
2022/12/23 01:53:06;;;;;;;32.60;14.68;;;;;;;4.86;57.28;100231.00;4933340;28;20054;-73
2022/12/23 01:55:44;;;;;;;29.23;12.98;;;;;;;4.84;57.03;100236.22;4914860;29;20043;-71
2022/12/23 01:58:22;;;;;;;31.45;13.18;;;;;;;4.81;57.26;100231.97;4915373;28;20048;-71
2022/12/23 02:03:44;;;;;;;31.35;12.20;;;;;;;4.77;57.46;100237.28;4899107;28;20284;-71
2022/12/23 02:09:21;;;;;;;32.13;14.00;;;;;;;4.73;57.57;100246.84;4898328;29;20269;-69
2022/12/23 02:12:11;;;;;;;31.80;13.60;;;;;;;4.77;57.64;100248.47;4896900;28;20126;-69
2022/12/23 02:18:10;;;;;;;35.17;14.05;;;;;;;4.73;57.91;100252.03;4904319;28;20760;-70
2022/12/23 02:20:58;;;;;;;36.40;15.02;;;;;;;4.72;57.73;100255.50;4931081;29;20063;-76
2022/12/23 02:23:54;;;;;;;38.00;15.60;;;;;;;4.77;57.81;100269.19;4891479;29;20114;-77
2022/12/23 02:26:50;;;;;;;43.47;15.35;;;;;;;4.76;57.90;100266.63;4928623;28;20243;-77
2022/12/23 02:29:51;;;;;;;35.88;14.20;;;;;;;4.72;57.65;100268.47;4931968;28;20071;-77
2022/12/23 02:32:41;;;;;;;38.10;14.05;;;;;;;4.81;57.58;100265.63;4936042;28;20427;-78
2022/12/23 02:35:44;;;;;;;32.63;14.63;;;;;;;4.80;57.55;100274.25;4935999;29;20036;-77
2022/12/23 02:38:32;;;;;;;27.80;12.27;;;;;;;4.86;57.87;100272.44;4926285;29;20047;-72
2022/12/23 02:41:14;;;;;;;59.33;14.45;;;;;;;4.75;57.71;100283.06;4933117;28;20550;-73
2022/12/23 02:44:06;;;;;;;35.03;13.85;;;;;;;4.88;57.55;100281.00;4881103;29;20056;-72
2022/12/23 02:46:40;;;;;;;39.78;15.35;;;;;;;4.90;57.36;100284.41;4895436;28;20055;-72
2022/12/23 02:49:12;;;;;;;32.28;13.27;;;;;;;4.96;57.39;100289.44;4898805;29;20032;-73
2022/12/23 02:51:43;;;;;;;32.20;14.02;;;;;;;4.96;57.25;100286.84;4897594;28;20055;-72
2022/12/23 02:54:14;;;;;;;30.15;13.68;;;;;;;4.96;57.55;100279.94;4898466;29;20083;-72
2022/12/23 02:56:44;;;;;;;29.80;12.55;;;;;;;4.90;57.50;100287.00;4897485;28;20067;-71
2022/12/23 02:59:20;;;;;;;32.28;13.65;;;;;;;4.93;57.15;100279.19;4903252;29;20032;-77
2022/12/23 03:01:46;;;;;;;30.17;13.35;;;;;;;4.91;57.46;100286.97;4915992;28;20460;-77
2022/12/23 03:04:13;;;;;;;30.00;11.98;;;;;;;4.93;57.36;100285.19;4935951;28;20040;-76
2022/12/23 03:06:42;;;;;;;30.85;13.43;;;;;;;4.91;57.20;100286.13;4933438;28;20035;-77
2022/12/23 03:09:08;;;;;;;26.25;11.80;;;;;;;4.96;57.26;100294.63;4935791;29;20103;-77
2022/12/23 03:11:50;;;;;;;35.75;14.77;;;;;;;4.98;57.20;100290.25;4921377;28;20019;-77
2022/12/23 03:14:39;;;;;;;31.83;14.02;;;;;;;4.92;57.42;100299.06;4916736;29;20047;-76
2022/12/23 03:17:34;;;;;;;65.65;14.40;;;;;;;4.68;57.80;100303.06;4916366;29;20056;-76
2022/12/23 03:20:13;;;;;;;35.10;13.13;;;;;;;4.83;57.35;100297.50;4930472;29;20035;-76
2022/12/23 03:23:20;;;;;;;34.58;12.82;;;;;;;4.89;57.52;100293.94;4903561;29;20333;-77
2022/12/23 03:25:56;;;;;;;33.00;13.73;;;;;;;4.87;57.61;100292.25;4883938;29;20056;-76
2022/12/23 03:28:29;;;;;;;44.38;16.40;;;;;;;4.80;57.60;100300.16;4932168;28;20119;-76
2022/12/23 03:30:58;;;;;;;40.35;15.68;;;;;;;4.87;57.68;100312.97;4937322;29;20043;-76
2022/12/23 03:33:30;;;;;;;37.85;16.85;;;;;;;4.87;57.64;100313.81;4924449;29;20106;-76
2022/12/23 03:35:58;;;;;;;;;;;;;;;4.89;57.75;100313.81;4940004;28;20126;-76
2022/12/23 03:38:25;;;;;;;45.97;15.60;;;;;;;4.96;57.37;100315.34;4922505;28;19927;-76
2022/12/23 03:40:59;;;;;;;42.33;15.18;;;;;;;4.92;57.45;100324.94;4921760;28;20044;-76
2022/12/23 03:43:29;;;;;;;44.42;16.13;;;;;;;4.94;57.59;100330.06;4918716;28;20036;-76
2022/12/23 03:46:03;;;;;;;46.40;15.85;;;;;;;4.92;57.50;100331.84;4916127;28;20111;-72
2022/12/23 03:48:35;;;;;;;39.75;16.95;;;;;;;4.93;57.66;100333.56;4919023;29;20415;-72
2022/12/23 03:51:09;;;;;;;48.08;16.35;;;;;;;4.96;57.84;100336.06;4922626;29;20330;-72
2022/12/23 03:53:40;;;;;;;63.67;18.77;;;;;;;4.79;58.29;100329.53;4932559;28;20622;-72
2022/12/23 03:56:15;;;;;;;50.00;18.40;;;;;;;4.93;57.79;100330.97;4932604;29;20116;-72
2022/12/23 03:58:53;;;;;;;63.13;18.05;;;;;;;4.89;57.86;100334.53;4932799;28;20075;-72
2022/12/23 04:01:40;;;;;;;56.08;17.02;;;;;;;4.97;57.80;100333.44;4933839;29;20473;-72
2022/12/23 04:04:13;;;;;;;55.83;16.75;;;;;;;4.98;57.88;100344.66;4906879;29;20104;-72
2022/12/23 04:06:47;;;;;;;48.38;16.88;;;;;;;5.01;57.98;100354.91;4913084;28;20028;-73
2022/12/23 04:09:14;;;;;;;51.80;17.52;;;;;;;4.90;58.17;100354.34;4935162;29;20095;-72
2022/12/23 04:11:40;;;;;;;41.88;16.20;;;;;;;4.96;58.30;100351.59;4930137;28;20038;-72
2022/12/23 04:14:06;;;;;;;41.08;14.63;;;;;;;4.96;58.31;100351.59;4913869;29;20103;-72
2022/12/23 04:16:32;;;;;;;41.85;15.27;;;;;;;5.04;57.94;100360.03;4901704;28;20051;-73
2022/12/23 04:18:58;;;;;;;44.33;16.45;;;;;;;5.07;57.81;100354.78;4934688;29;20054;-73
2022/12/23 04:21:23;;;;;;;43.53;16.20;;;;;;;5.06;57.94;100355.69;4934082;29;20135;-73
2022/12/23 04:23:48;;;;;;;50.22;16.23;;;;;;;4.91;58.17;100361.22;4933325;28;20031;-73
2022/12/23 04:26:14;;;;;;;42.78;15.13;;;;;;;4.84;58.10;100366.53;4934298;29;20139;-76
2022/12/23 04:28:39;;;;;;;35.72;13.20;;;;;;;4.95;58.42;100360.28;4932155;28;20088;-73
2022/12/23 04:31:05;;;;;;;41.28;14.77;;;;;;;4.94;57.98;100366.31;4933669;29;20036;-73
2022/12/23 04:33:30;;;;;;;49.15;14.48;;;;;;;4.88;58.16;100359.56;4932214;28;20638;-73
2022/12/23 04:35:58;;;;;;;43.25;13.55;;;;;;;4.99;58.06;100364.50;4934301;29;20042;-73
2022/12/23 04:38:24;;;;;;;40.33;15.50;;;;;;;4.69;58.89;100373.81;4917655;29;20043;-73
2022/12/23 04:40:49;;;;;;;36.38;13.82;;;;;;;4.90;58.12;100367.28;4932749;29;20027;-72
2022/12/23 04:43:15;;;;;;;39.30;13.60;;;;;;;4.96;57.89;100361.97;4916338;29;20142;-73
2022/12/23 04:45:40;;;;;;;36.58;12.50;;;;;;;4.96;57.41;100370.56;4930329;29;20337;-73
2022/12/23 04:48:06;;;;;;;34.47;11.45;;;;;;;4.93;57.22;100364.63;4933582;28;20039;-74
2022/12/23 04:50:31;;;;;;;38.58;12.75;;;;;;;4.89;57.60;100374.22;4932440;29;20493;-73
2022/12/23 04:52:57;;;;;;;32.17;10.27;;;;;;;4.87;57.35;100372.53;4931012;28;20039;-75
2022/12/23 04:55:22;;;;;;;34.42;11.75;;;;;;;4.76;57.48;100371.03;4932306;29;20048;-74
2022/12/23 04:57:48;;;;;;;28.70;10.15;;;;;;;4.50;58.43;100371.66;4931721;28;20051;-73
2022/12/23 05:00:13;;;;;;;32.50;10.60;;;;;;;4.53;57.64;100368.13;4934684;29;20051;-73
2022/12/23 05:02:39;;;;;;;29.60;10.95;;;;;;;4.55;57.66;100376.72;4930310;28;20051;-70
2022/12/23 05:05:05;;;;;;;29.35;10.10;;;;;;;4.61;57.81;100386.94;4934286;29;20046;-69
2022/12/23 05:07:30;;;;;;;32.50;10.35;;;;;;;4.65;58.14;100383.38;4927736;28;20471;-70
2022/12/23 05:10:00;;;;;;;26.75;8.93;;;;;;;4.71;57.98;100385.81;4930693;29;20043;-69
2022/12/23 05:12:27;;;;;;;36.17;10.63;;;;;;;4.70;57.95;100381.56;4924613;28;20111;-77
2022/12/23 05:14:53;;;;;;;28.20;10.50;;;;;;;4.84;57.92;100384.66;4916278;29;20134;-77
2022/12/23 05:17:18;;;;;;;25.25;9.15;;;;;;;4.82;57.54;100386.41;4901150;29;20148;-77
2022/12/23 05:19:44;;;;;;;30.90;11.00;;;;;;;4.83;57.45;100377.78;4915240;29;20051;-77
2022/12/23 05:22:11;;;;;;;23.63;9.13;;;;;;;4.90;57.46;100375.06;4917301;29;20138;-76
2022/12/23 05:24:37;;;;;;;24.50;8.60;;;;;;;4.93;57.65;100373.25;4914734;29;20119;-76
2022/12/23 05:27:02;;;;;;;26.92;8.23;;;;;;;4.94;57.50;100381.88;4918844;29;20043;-76
2022/12/23 05:29:28;;;;;;;28.50;9.35;;;;;;;4.97;57.52;100384.41;4919182;29;20046;-76
2022/12/23 05:31:53;;;;;;;20.67;8.10;;;;;;;4.99;57.52;100378.28;4929126;28;20075;-76
2022/12/23 05:34:19;;;;;;;20.55;7.68;;;;;;;5.00;57.61;100384.31;4902380;29;20075;-77
2022/12/23 05:36:44;;;;;;;25.55;7.97;;;;;;;5.06;57.23;100394.53;4906662;28;20039;-82
2022/12/23 05:39:10;;;;;;;24.77;7.43;;;;;;;5.10;57.36;100406.53;4949221;28;20063;-82
2022/12/23 05:41:35;;;;;;;22.95;7.32;;;;;;;5.08;57.43;100387.56;4930994;28;20904;-73
2022/12/23 05:44:00;;;;;;;23.35;7.28;;;;;;;5.07;57.12;100385.84;4935798;29;20040;-73
2022/12/23 05:46:26;;;;;;;22.35;7.15;;;;;;;5.06;57.13;100389.34;4932559;29;20347;-73
2022/12/23 05:48:51;;;;;;;21.83;7.95;;;;;;;5.00;57.66;100399.84;4932134;28;20039;-73
2022/12/23 05:51:17;;;;;;;23.88;7.72;;;;;;;5.08;57.64;100400.53;4933595;29;20050;-72
2022/12/23 05:53:42;;;;;;;19.80;6.97;;;;;;;4.86;57.76;100392.38;4930071;28;20043;-72
2022/12/23 05:56:08;;;;;;;19.17;6.65;;;;;;;4.92;57.81;100406.94;4933953;29;20146;-72
2022/12/23 05:58:33;;;;;;;18.50;7.30;;;;;;;4.76;58.36;100402.09;4931121;28;20071;-71
2022/12/23 06:01:01;;;;;;;18.40;5.70;;;;;;;4.90;58.07;100406.13;4930861;29;20039;-71
2022/12/23 06:03:27;;;;;;;16.30;6.75;;;;;;;4.99;58.07;100399.00;4942079;28;20055;-71
2022/12/23 06:05:53;;;;;;;23.35;7.32;;;;;;;4.90;58.13;100398.34;4925599;29;20051;-70
2022/12/23 06:08:19;;;;;;;20.15;7.30;;;;;;;4.90;57.97;100400.94;4907190;28;20064;-72
2022/12/23 06:10:44;;;;;;;25.02;7.15;;;;;;;4.58;58.58;100407.69;4893283;29;20043;-76
2022/12/23 06:13:10;;;;;;;22.40;7.38;;;;;;;4.87;57.92;100408.78;4906475;28;20063;-75
2022/12/23 06:15:35;;;;;;;16.45;6.35;;;;;;;4.88;58.24;100405.31;4894921;29;20047;-75
2022/12/23 06:18:01;;;;;;;16.65;6.68;;;;;;;4.90;57.96;100407.00;4912271;28;20051;-77
2022/12/23 06:20:26;;;;;;;19.65;6.35;;;;;;;4.95;57.50;100404.31;4912994;29;20808;-73
2022/12/23 06:22:52;;;;;;;27.08;7.18;;;;;;;4.93;57.62;100403.50;4909343;28;20497;-70
2022/12/23 06:25:17;;;;;;;21.90;7.07;;;;;;;4.91;57.57;100400.09;4911101;29;20067;-70
2022/12/23 06:27:43;;;;;;;27.45;7.88;;;;;;;4.86;57.39;100397.56;4899026;28;20044;-72
2022/12/23 06:30:09;;;;;;;20.80;7.88;;;;;;;4.69;57.99;100400.53;4893632;29;20091;-75
2022/12/23 06:32:34;;;;;;;21.63;6.85;;;;;;;4.80;57.29;100403.72;4891806;28;20606;-77
2022/12/23 06:35:00;;;;;;;24.38;7.38;;;;;;;4.82;57.20;100407.13;4892015;29;20028;-72
2022/12/23 06:37:25;;;;;;;22.65;7.53;;;;;;;4.62;57.91;100414.50;4899052;28;20498;-74
2022/12/23 06:39:51;;;;;;;22.77;7.85;;;;;;;4.55;58.07;100425.91;4911777;29;20036;-73
2022/12/23 06:42:16;;;;;;;22.42;8.45;;;;;;;4.57;58.15;100432.75;4902611;28;20602;-73
2022/12/23 06:44:42;;;;;;;19.95;7.05;;;;;;;4.63;58.24;100447.25;4875172;29;20096;-73
2022/12/23 06:47:07;;;;;;;24.30;7.13;;;;;;;4.53;58.62;100448.38;4897861;29;20448;-73
2022/12/23 06:49:32;;;;;;;24.90;7.22;;;;;;;4.70;58.32;100451.44;4921775;28;20098;-72
2022/12/23 06:51:58;;;;;;;26.33;6.88;;;;;;;4.74;57.53;100445.28;4904655;28;20050;-74
2022/12/23 06:54:23;;;;;;;24.17;8.05;;;;;;;4.23;59.27;100437.78;4903756;29;20042;-72
2022/12/23 06:56:49;;;;;;;22.63;8.68;;;;;;;4.08;59.51;100440.69;4907864;28;20940;-73
2022/12/23 06:59:14;;;;;;;23.67;6.95;;;;;;;4.62;58.44;100435.22;4913462;29;20091;-74
2022/12/23 07:01:40;;;;;;;17.67;6.18;;;;;;;4.78;57.86;100436.56;4908961;28;20081;-73
2022/12/23 07:04:05;;;;;;;18.90;6.35;;;;;;;4.77;58.17;100439.22;4911472;29;20052;-73
2022/12/23 07:06:31;;;;;;;19.65;6.40;;;;;;;4.80;58.02;100450.34;4914003;28;20430;-73
2022/12/23 07:08:56;;;;;;;16.58;6.28;;;;;;;4.88;57.71;100439.84;4915453;29;20468;-73
2022/12/23 07:11:22;;;;;;;20.25;6.03;;;;;;;4.68;58.19;100455.81;4916309;29;20036;-72
2022/12/23 07:13:47;;;;;;;17.55;6.32;;;;;;;4.80;58.06;100463.28;4927078;28;20462;-73
2022/12/23 07:16:13;;;;;;;18.65;5.75;;;;;;;4.66;58.13;100470.50;4898333;29;20498;-68
2022/12/23 07:18:39;;;;;;;19.10;5.60;;;;;;;4.71;58.20;100481.63;4912197;29;20056;-68
2022/12/23 07:21:05;;;;;;;15.73;5.75;;;;;;;4.59;58.64;100489.66;4915526;29;20032;-68
2022/12/23 07:23:30;;;;;;;18.02;5.65;;;;;;;4.80;58.30;100485.75;4912583;28;20844;-68
2022/12/23 07:25:56;;;;;;;19.38;5.63;;;;;;;4.80;58.18;100491.75;4913591;29;20087;-67
2022/12/23 07:28:23;;;;;;;15.70;5.22;;;;;;;4.73;58.59;100494.53;4903169;28;20055;-73
2022/12/23 07:30:49;;;;;;;16.80;6.18;;;;;;;4.80;58.28;100496.94;4916481;29;20195;-73
2022/12/23 07:33:15;;;;;;;17.98;6.13;;;;;;;4.81;58.53;100490.91;4911576;28;20497;-74
2022/12/23 07:35:41;;;;;;;16.50;6.57;;;;;;;4.87;58.06;100494.22;4916650;29;20040;-70
2022/12/23 07:38:07;;;;;;;19.30;6.07;;;;;;;4.78;57.95;100493.53;4916523;28;20063;-70
2022/12/23 07:40:33;;;;;;;17.17;5.50;;;;;;;4.84;58.09;100488.22;4912884;29;20574;-71
2022/12/23 07:42:58;;;;;;;21.42;5.82;;;;;;;4.85;58.04;100496.84;4914042;29;20115;-71
2022/12/23 07:45:25;;;;;;;19.75;6.05;;;;;;;4.77;58.21;100491.84;4915621;28;20130;-68
2022/12/23 07:48:01;;;;;;;20.83;6.07;;;;;;;4.94;57.93;100501.84;4918563;28;20107;-75
2022/12/23 07:50:27;;;;;;;19.08;6.93;;;;;;;5.05;57.59;100497.28;4917746;29;20039;-75
2022/12/23 07:52:53;;;;;;;23.58;6.22;;;;;;;4.91;57.47;100499.34;4917414;28;20627;-73
2022/12/23 07:55:20;;;;;;;22.15;7.00;;;;;;;4.98;57.76;100502.63;4917665;29;20142;-75
2022/12/23 07:57:50;;;;;;;23.65;7.32;;;;;;;4.98;57.58;100502.63;4902349;28;20055;-72
2022/12/23 08:00:17;;;;;;;19.90;5.57;;;;;;;4.95;57.40;100510.50;4898916;29;20051;-71
2022/12/23 08:02:42;;;;;;;22.52;5.57;;;;;;;4.78;57.91;100518.59;4904340;29;20138;-71
2022/12/23 08:05:09;;;;;;;19.10;6.18;;;;;;;4.82;57.68;100526.25;4915528;29;20069;-71
2022/12/23 08:07:34;;;;;;;13.32;5.38;;;;;;;4.86;57.62;100534.81;4914805;28;20817;-71
2022/12/23 08:10:00;;;;;;;13.48;5.20;;;;;;;4.79;58.12;100531.50;4917103;29;20039;-71
2022/12/23 08:12:25;;;;;;;16.40;6.15;;;;;;;4.80;57.86;100525.44;4930364;28;20098;-70
2022/12/23 08:14:51;;;;;;;17.42;6.05;;;;;;;4.36;59.09;100527.22;4914136;29;20063;-71
2022/12/23 08:17:20;;;;;;;19.92;6.38;;;;;;;4.72;58.19;100540.28;4913909;28;20047;-71
2022/12/23 08:19:47;;;;;;;18.27;6.22;;;;;;;4.87;57.68;100533.06;4912479;29;20420;-71
2022/12/23 08:22:12;;;;;;;21.05;5.25;;;;;;;4.78;57.95;100540.13;4928254;28;20074;-71
2022/12/23 08:24:38;;;;;;;14.23;6.07;;;;;;;4.94;57.59;100539.84;4909468;29;20533;-71
2022/12/23 08:27:04;;;;;;;19.38;6.45;;;;;;;4.84;57.97;100534.84;4896815;29;20618;-71
2022/12/23 08:29:29;;;;;;;15.80;5.78;;;;;;;5.03;57.76;100530.16;4912068;29;20043;-71
2022/12/23 08:31:55;;;;;;;19.92;6.45;;;;;;;5.08;57.19;100530.06;4911268;28;20154;-71
2022/12/23 08:34:20;;;;;;;19.63;5.35;;;;;;;5.10;57.58;100519.63;4903665;29;20136;-71
2022/12/23 08:36:46;;;;;;;16.10;5.35;;;;;;;5.19;57.31;100517.69;4906980;28;20126;-71
2022/12/23 08:39:11;;;;;;;17.75;6.25;;;;;;;5.12;57.43;100513.53;4915056;29;20047;-71
2022/12/23 08:41:41;;;;;;;15.80;4.95;;;;;;;5.22;57.07;100522.81;4925054;28;20039;-71
2022/12/23 08:44:07;;;;;;;17.05;5.60;;;;;;;5.36;57.26;100526.81;4913104;29;20043;-71
2022/12/23 08:46:33;;;;;;;19.10;5.40;;;;;;;5.29;57.35;100518.31;4909496;28;20038;-71
2022/12/23 08:48:59;;;;;;;17.13;5.25;;;;;;;5.44;57.30;100524.91;4915345;29;20043;-70
2022/12/23 08:51:26;;;;;;;10.57;4.45;;;;;;;5.50;57.01;100524.72;4915287;29;20039;-71
2022/12/23 08:53:55;;;;;;;16.33;5.40;;;;;;;5.35;57.12;100538.06;4892207;28;20055;-71
2022/12/23 08:56:22;;;;;;;13.23;4.15;;;;;;;5.33;57.05;100535.50;4893432;29;20054;-71
2022/12/23 08:58:49;;;;;;;15.75;4.40;;;;;;;5.39;56.60;100526.72;4893233;29;20048;-71
2022/12/23 09:01:17;;;;;;;13.45;4.13;;;;;;;5.52;56.91;100527.28;4894070;29;20138;-71
2022/12/23 09:03:44;;;;;;;13.50;5.05;;;;;;;5.65;56.78;100520.91;4891011;28;20048;-71
2022/12/23 09:06:12;;;;;;;18.75;5.88;;;;;;;5.80;56.71;100522.28;4893922;29;20741;-71
2022/12/23 09:08:39;;;;;;;14.18;4.10;;;;;;;5.83;56.26;100511.81;4892509;29;20040;-72
2022/12/23 09:11:08;;;;;;;14.02;4.72;;;;;;;5.87;56.26;100508.25;4912692;29;20036;-72
2022/12/23 09:13:34;;;;;;;11.93;4.00;;;;;;;6.07;56.11;100503.38;4910111;28;20064;-71
2022/12/23 09:15:59;;;;;;;14.23;5.38;;;;;;;6.18;55.90;100507.44;4914206;29;20071;-71
2022/12/23 09:18:24;;;;;;;9.25;4.40;;;;;;;6.27;55.70;100508.03;4915466;28;20057;-72
2022/12/23 09:20:59;;;;;;;20.98;5.53;;;;;;;6.40;55.78;100518.94;4913388;29;20078;-72
2022/12/23 09:23:25;;;;;;;15.07;4.10;;;;;;;6.37;55.40;100529.41;4910058;28;20505;-73
2022/12/23 09:25:50;;;;;;;13.98;4.43;;;;;;;6.44;55.00;100530.94;4905557;29;20051;-71
2022/12/23 09:28:16;;;;;;;19.90;5.75;;;;;;;5.59;55.87;100534.91;4893146;28;20048;-72
2022/12/23 09:30:41;;;;;;;10.95;5.07;;;;;;;6.17;55.50;100529.06;4888455;29;20082;-72
2022/12/23 09:33:07;;;;;;;11.10;5.25;;;;;;;6.02;54.89;100531.19;4887939;28;20047;-72
2022/12/23 09:35:32;;;;;;;15.20;4.60;;;;;;;6.15;55.19;100536.03;4886705;29;20078;-72
2022/12/23 09:37:58;;;;;;;15.70;5.75;;;;;;;6.13;55.21;100536.09;4890843;28;20059;-70
2022/12/23 09:40:23;;;;;;;14.43;5.38;;;;;;;5.99;55.00;100531.25;4891472;29;20051;-70
2022/12/23 09:43:11;;;;;;;15.05;5.13;;;;;;;6.24;55.16;100528.03;4886635;28;20148;-71
2022/12/23 09:45:42;;;;;;;14.65;4.93;;;;;;;6.00;55.14;100527.78;4888624;29;20528;-70
2022/12/23 09:48:13;;;;;;;15.73;5.25;;;;;;;6.44;54.79;100517.97;4887030;28;20059;-70
2022/12/23 09:50:39;;;;;;;16.30;6.20;;;;;;;6.64;54.76;100517.41;4888031;29;20396;-70
2022/12/23 09:53:16;;;;;;;11.15;5.00;;;;;;;6.71;53.69;100515.47;4888706;28;20158;-70
2022/12/23 09:56:06;;;;;;;16.02;6.13;;;;;;;6.93;54.22;100514.81;4889938;29;20048;-70
2022/12/23 09:58:47;;;;;;;14.52;5.13;;;;;;;6.88;53.42;100513.19;4894976;29;20139;-71
2022/12/23 10:01:23;;;;;;;12.75;5.75;;;;;;;7.50;51.27;100508.69;4908466;29;20349;-70
2022/12/23 10:04:27;;;;;;;14.68;5.07;;;;;;;8.39;52.72;100504.78;4907293;28;20048;-70
2022/12/23 10:07:02;;;;;;;18.88;5.47;;;;;;;8.62;49.74;100503.91;4904482;28;20405;-70
2022/12/23 10:09:36;;;;;;;13.77;5.80;;;;;;;8.60;48.79;100508.31;4910868;29;20041;-71
2022/12/23 10:12:14;;;;;;;13.20;4.75;;;;;;;8.66;50.04;100502.88;4896983;29;20082;-71
2022/12/23 10:14:42;;;;;;;14.73;5.70;;;;;;;8.72;50.02;100505.31;4887611;29;20512;-71
2022/12/23 10:17:27;;;;;;;15.23;5.53;;;;;;;8.69;48.60;100503.59;4894043;29;20212;-71
2022/12/23 10:19:58;;;;;;;11.98;3.92;;;;;;;8.74;49.42;100503.50;4906600;29;20409;-70
2022/12/23 10:22:30;;;;;;;12.73;4.32;;;;;;;8.56;48.86;100495.44;4905941;28;20094;-71
2022/12/23 10:24:58;;;;;;;14.23;4.20;;;;;;;8.05;49.26;100501.63;4905729;29;20059;-71
2022/12/23 10:27:34;;;;;;;9.55;4.45;;;;;;;7.58;50.63;100508.44;4905563;28;20052;-70
2022/12/23 10:30:06;;;;;;;12.50;4.35;;;;;;;7.58;51.11;100509.31;4908894;29;20289;-71
2022/12/23 10:32:49;;;;;;;;;;;;;;;7.52;51.37;100505.13;4907101;28;20276;-70
2022/12/23 10:35:20;;;;;;;14.48;4.90;;;;;;;7.15;51.73;100505.44;4909030;29;19919;-70
2022/12/23 10:38:24;;;;;;;11.43;4.88;;;;;;;7.49;51.84;100492.22;4889424;29;20501;-70
2022/12/23 10:41:02;;;;;;;12.05;4.60;;;;;;;7.65;50.89;100503.00;4906049;29;20040;-71
2022/12/23 10:44:03;;;;;;;11.93;4.70;;;;;;;7.45;50.75;100503.63;4904853;28;20409;-70
2022/12/23 10:46:38;;;;;;;14.07;5.28;;;;;;;7.73;50.31;100493.19;4902024;29;20079;-70
2022/12/23 10:49:41;;;;;;;18.23;5.22;;;;;;;7.13;50.99;100494.25;4884693;29;20044;-69
2022/12/23 10:52:22;;;;;;;11.55;4.57;;;;;;;7.61;51.66;100491.00;4886524;29;20405;-69
2022/12/23 10:54:48;;;;;;;8.43;3.93;;;;;;;7.71;51.42;100489.78;4905783;29;20501;-70
2022/12/23 10:57:16;;;;;;;15.88;5.60;;;;;;;7.53;50.83;100492.97;4906757;29;20122;-70
2022/12/23 10:59:42;;;;;;;11.18;4.07;;;;;;;7.65;51.45;100487.38;4906014;29;20031;-70
2022/12/23 11:02:10;;;;;;;15.00;4.28;;;;;;;7.72;50.95;100488.88;4905132;28;20510;-70
2022/12/23 11:04:42;;;;;;;15.77;4.53;;;;;;;7.16;51.61;100485.53;4904804;29;20036;-69
2022/12/23 11:07:11;;;;;;;11.88;4.20;;;;;;;7.25;51.29;100485.22;4918869;28;20485;-70
2022/12/23 11:09:40;;;;;;;11.90;4.18;;;;;;;7.05;51.25;100485.88;4904899;29;20036;-70
2022/12/23 11:12:09;;;;;;;11.93;3.92;;;;;;;7.04;51.61;100478.94;4906031;28;20047;-70
2022/12/23 11:14:51;;;;;;;10.32;4.40;;;;;;;7.10;52.29;100470.97;4904671;29;20453;-69
2022/12/23 11:17:26;;;;;;;11.43;4.43;;;;;;;7.09;52.79;100470.13;4905654;28;20673;-70
2022/12/23 11:20:15;;;;;;;10.32;3.13;;;;;;;7.22;52.27;100468.00;4905519;29;20384;-70
2022/12/23 11:22:49;;;;;;;11.80;4.13;;;;;;;7.46;52.44;100460.25;4917891;28;20105;-70
2022/12/23 11:25:29;;;;;;;8.45;3.33;;;;;;;7.73;50.93;100450.69;4903670;29;20333;-70
2022/12/23 11:27:59;;;;;;;9.15;3.03;;;;;;;8.08;50.11;100440.78;4906357;28;20048;-70
2022/12/23 11:30:26;;;;;;;12.30;3.10;;;;;;;7.91;49.89;100444.00;4902274;29;20210;-70
2022/12/23 11:32:51;;;;;;;9.95;3.90;;;;;;;7.97;50.51;100441.19;4903880;29;20322;-70
2022/12/23 11:35:26;;;;;;;8.55;3.28;;;;;;;7.72;49.67;100431.66;4906008;29;20424;-69
2022/12/23 11:37:56;;;;;;;9.60;3.47;;;;;;;7.52;49.81;100434.06;4905701;28;20211;-69
2022/12/23 11:40:26;;;;;;;9.88;3.70;;;;;;;7.36;50.17;100435.50;4907884;29;20043;-70
2022/12/23 11:42:56;;;;;;;12.13;4.07;;;;;;;7.11;51.04;100433.69;4895358;28;20083;-69
2022/12/23 11:45:26;;;;;;;11.40;3.20;;;;;;;6.94;51.65;100433.38;4889580;29;20364;-70
2022/12/23 11:47:51;;;;;;;7.32;2.78;;;;;;;6.93;51.07;100444.66;4901310;28;20648;-70
2022/12/23 11:50:23;;;;;;;9.05;2.78;;;;;;;6.83;52.25;100444.09;4888642;29;20040;-70
2022/12/23 11:52:55;;;;;;;6.80;2.45;;;;;;;6.95;52.04;100451.50;4887849;28;20554;-69
2022/12/23 11:55:28;;;;;;;12.20;3.97;;;;;;;6.86;52.16;100439.69;4892081;29;20068;-69
2022/12/23 11:57:55;;;;;;;13.68;3.97;;;;;;;6.95;52.86;100445.47;4905088;29;20673;-70
2022/12/23 12:00:35;;;;;;;9.80;2.92;;;;;;;7.06;52.78;100449.41;4892396;29;20520;-69